CheckWX is a tool to help pilots better visualize weather data.  It is not intended as a substitute for an official pre-flight weather briefing.

08:05:57 UTC

LJPZ METAR
Portoroz Airport
Portoroz, Slovenia
Current

36 mins ago

LJPZ 240730Z 12006KT 9999 FEW023 OVC030 12/09 Q1020
Observed
Feb-24 @ 07:30 UTC
Wind
  • 120° at 6 KTS
Visibility
10,000+ meters
Flight Rules
MVFR
Cloud Levels
  • Few at 2,300' AGL
  • Overcast at 3,000' AGL
Temperature
12°C / 54°F
Dewpoint
C / 48°F
Humidity
82%
Altimeter
30.12" Hg
Pressure
1019.92 hPa
Previous

1 hour ago

LJPZ 240700Z 13005KT 9999 FEW020 OVC027 12/08 Q1020
Observed
Feb-24 @ 07:00 UTC
Wind
  • 130° at 5 KTS
Visibility
10,000+ meters
Flight Rules
MVFR
Cloud Levels
  • Few at 2,000' AGL
  • Overcast at 2,700' AGL
Temperature
12°C / 54°F
Dewpoint
C / 46°F
Humidity
77%
Altimeter
30.12" Hg
Pressure
1019.92 hPa
Previous

2 hours ago

LJPZ 240630Z 13005KT 9999 FEW017 SCT020 OVC026 12/08 Q1019
Observed
Feb-24 @ 06:30 UTC
Wind
  • 130° at 5 KTS
Visibility
10,000+ meters
Flight Rules
MVFR
Cloud Levels
  • Few at 1,700' AGL
  • Scattered at 2,000' AGL
  • Overcast at 2,600' AGL
Temperature
12°C / 54°F
Dewpoint
C / 46°F
Humidity
77%
Altimeter
30.09" Hg
Pressure
1018.92 hPa